Main page
METAR-TAF:

METAR-TAF

Airports :

Washington Municipal Airport

Washington, Iowa, United States

latitude: 41-17N, longitude: 091-40W, elevation: 754 ft

Current weather observation

The report was made 16 minutes ago, at 20:35 UTC
Wind 23 mph from the West/Northwest with gusts up to 29 mph
Temperature 30°F
Humidity 17%
Pressure 30.25 in. Hg
Visibility: 10 miles
Clear sky

METAR: KAWG 282035Z AUTO 29020G25KT 10SM CLR M01/M23 A3025 RMK AO2

Time: 14:51 (20:51 UTC)


TAF: missing

Weather observations and forecasts of more than 4000 airports (METAR and TAF reports).

The available stations are represented by yellow and red dots on the map.

Hover mouse over dot to see the name of the station.

Then click to see weather observations and forecasts.

To change the map : click on the green buttons with a black cross to zoom in, on the green button with a dash to zoom out, or on the green arrows for adjacent maps.


METAR-TAF: